sensor_id;sensor_type;location;lat;lon;timestamp;P1;durP1;ratioP1;P2;durP2;ratioP2
42514;SDS011;28144;49.920;18.730;2023-10-19T00:00:42;130.23;;;59.80;;
42514;SDS011;28144;49.920;18.730;2023-10-19T00:03:30;119.20;;;60.67;;
42514;SDS011;28144;49.920;18.730;2023-10-19T00:05:56;107.00;;;51.47;;
42514;SDS011;28144;49.920;18.730;2023-10-19T00:08:23;123.32;;;57.60;;
42514;SDS011;28144;49.920;18.730;2023-10-19T00:10:51;129.30;;;59.13;;
42514;SDS011;28144;49.920;18.730;2023-10-19T00:13:38;137.67;;;60.50;;
42514;SDS011;28144;49.920;18.730;2023-10-19T00:18:46;106.83;;;47.10;;
42514;SDS011;28144;49.920;18.730;2023-10-19T00:21:14;112.63;;;52.03;;
42514;SDS011;28144;49.920;18.730;2023-10-19T00:23:50;111.53;;;54.93;;
42514;SDS011;28144;49.920;18.730;2023-10-19T00:26:18;113.83;;;51.23;;
42514;SDS011;28144;49.920;18.730;2023-10-19T00:28:50;133.70;;;59.60;;
42514;SDS011;28144;49.920;18.730;2023-10-19T00:31:21;117.53;;;57.00;;
42514;SDS011;28144;49.920;18.730;2023-10-19T00:33:47;109.45;;;50.15;;
42514;SDS011;28144;49.920;18.730;2023-10-19T00:36:17;112.80;;;51.03;;
42514;SDS011;28144;49.920;18.730;2023-10-19T00:38:45;105.37;;;49.63;;
42514;SDS011;28144;49.920;18.730;2023-10-19T00:41:16;118.13;;;50.43;;
42514;SDS011;28144;49.920;18.730;2023-10-19T00:43:52;110.03;;;51.33;;
42514;SDS011;28144;49.920;18.730;2023-10-19T00:46:37;123.53;;;54.70;;
42514;SDS011;28144;49.920;18.730;2023-10-19T00:49:08;113.87;;;51.80;;
42514;SDS011;28144;49.920;18.730;2023-10-19T00:51:48;103.80;;;44.27;;
42514;SDS011;28144;49.920;18.730;2023-10-19T00:54:29;113.57;;;50.53;;
42514;SDS011;28144;49.920;18.730;2023-10-19T00:57:12;104.00;;;45.40;;
42514;SDS011;28144;49.920;18.730;2023-10-19T00:59:38;106.70;;;45.93;;
42514;SDS011;28144;49.920;18.730;2023-10-19T01:02:15;102.87;;;44.53;;
42514;SDS011;28144;49.920;18.730;2023-10-19T01:07:10;98.20;;;45.17;;
42514;SDS011;28144;49.920;18.730;2023-10-19T01:09:56;91.00;;;45.07;;
42514;SDS011;28144;49.920;18.730;2023-10-19T01:12:24;92.23;;;43.77;;
42514;SDS011;28144;49.920;18.730;2023-10-19T01:15:02;87.83;;;40.70;;
42514;SDS011;28144;49.920;18.730;2023-10-19T01:17:47;80.53;;;38.67;;
42514;SDS011;28144;49.920;18.730;2023-10-19T01:20:22;79.30;;;36.63;;
42514;SDS011;28144;49.920;18.730;2023-10-19T01:28:30;76.47;;;34.83;;
42514;SDS011;28144;49.920;18.730;2023-10-19T01:31:07;73.10;;;33.00;;
42514;SDS011;28144;49.920;18.730;2023-10-19T01:33:55;68.47;;;31.33;;
42514;SDS011;28144;49.920;18.730;2023-10-19T01:36:26;66.77;;;31.73;;
42514;SDS011;28144;49.920;18.730;2023-10-19T01:38:56;59.63;;;28.27;;
42514;SDS011;28144;49.920;18.730;2023-10-19T01:41:26;66.33;;;31.70;;
42514;SDS011;28144;49.920;18.730;2023-10-19T01:43:53;67.20;;;30.77;;
42514;SDS011;28144;49.920;18.730;2023-10-19T01:46:19;62.35;;;29.08;;
42514;SDS011;28144;49.920;18.730;2023-10-19T01:48:53;62.27;;;30.70;;
42514;SDS011;28144;49.920;18.730;2023-10-19T01:51:23;61.47;;;28.00;;
42514;SDS011;28144;49.920;18.730;2023-10-19T01:53:52;44.83;;;22.50;;
42514;SDS011;28144;49.920;18.730;2023-10-19T01:56:20;54.73;;;23.67;;
42514;SDS011;28144;49.920;18.730;2023-10-19T01:58:47;47.57;;;22.10;;
42514;SDS011;28144;49.920;18.730;2023-10-19T02:01:14;41.97;;;20.20;;
42514;SDS011;28144;49.920;18.730;2023-10-19T02:03:53;38.20;;;18.87;;
42514;SDS011;28144;49.920;18.730;2023-10-19T02:06:20;45.93;;;21.13;;
42514;SDS011;28144;49.920;18.730;2023-10-19T02:11:25;44.90;;;20.67;;
42514;SDS011;28144;49.920;18.730;2023-10-19T02:13:53;42.45;;;20.17;;
42514;SDS011;28144;49.920;18.730;2023-10-19T02:16:20;44.53;;;19.33;;
42514;SDS011;28144;49.920;18.730;2023-10-19T02:18:48;49.40;;;19.77;;
42514;SDS011;28144;49.920;18.730;2023-10-19T02:21:14;128.30;;;77.27;;
42514;SDS011;28144;49.920;18.730;2023-10-19T02:23:42;52.37;;;27.87;;
42514;SDS011;28144;49.920;18.730;2023-10-19T02:26:08;172.97;;;90.53;;
42514;SDS011;28144;49.920;18.730;2023-10-19T02:28:35;84.15;;;38.55;;
42514;SDS011;28144;49.920;18.730;2023-10-19T02:31:03;162.20;;;72.23;;
42514;SDS011;28144;49.920;18.730;2023-10-19T02:33:40;440.60;;;200.73;;
42514;SDS011;28144;49.920;18.730;2023-10-19T02:36:11;180.53;;;83.97;;
42514;SDS011;28144;49.920;18.730;2023-10-19T02:38:39;98.57;;;50.57;;
42514;SDS011;28144;49.920;18.730;2023-10-19T02:41:05;52.22;;;21.65;;
42514;SDS011;28144;49.920;18.730;2023-10-19T02:43:31;46.77;;;24.27;;
42514;SDS011;28144;49.920;18.730;2023-10-19T02:46:01;294.92;;;164.13;;
42514;SDS011;28144;49.920;18.730;2023-10-19T02:48:28;402.10;;;233.77;;
42514;SDS011;28144;49.920;18.730;2023-10-19T02:50:54;45.23;;;26.47;;
42514;SDS011;28144;49.920;18.730;2023-10-19T02:53:20;502.20;;;260.37;;
42514;SDS011;28144;49.920;18.730;2023-10-19T02:55:45;771.17;;;463.70;;
42514;SDS011;28144;49.920;18.730;2023-10-19T02:58:11;534.43;;;316.50;;
42514;SDS011;28144;49.920;18.730;2023-10-19T03:00:38;456.37;;;308.37;;
42514;SDS011;28144;49.920;18.730;2023-10-19T03:03:05;110.07;;;70.13;;
42514;SDS011;28144;49.920;18.730;2023-10-19T03:05:31;36.63;;;19.20;;
42514;SDS011;28144;49.920;18.730;2023-10-19T03:08:01;74.70;;;43.73;;
42514;SDS011;28144;49.920;18.730;2023-10-19T03:10:31;41.63;;;20.17;;
42514;SDS011;28144;49.920;18.730;2023-10-19T03:13:10;77.85;;;44.40;;
42514;SDS011;28144;49.920;18.730;2023-10-19T03:15:39;56.40;;;28.67;;
42514;SDS011;28144;49.920;18.730;2023-10-19T03:18:08;59.57;;;28.87;;
42514;SDS011;28144;49.920;18.730;2023-10-19T03:20:37;81.90;;;51.13;;
42514;SDS011;28144;49.920;18.730;2023-10-19T03:23:03;65.90;;;43.73;;
42514;SDS011;28144;49.920;18.730;2023-10-19T03:25:29;53.77;;;22.80;;
42514;SDS011;28144;49.920;18.730;2023-10-19T03:28:14;43.70;;;21.70;;
42514;SDS011;28144;49.920;18.730;2023-10-19T03:30:41;45.23;;;21.47;;
42514;SDS011;28144;49.920;18.730;2023-10-19T03:33:07;52.47;;;22.10;;
42514;SDS011;28144;49.920;18.730;2023-10-19T03:35:37;43.23;;;21.33;;
42514;SDS011;28144;49.920;18.730;2023-10-19T03:38:07;51.63;;;25.10;;
42514;SDS011;28144;49.920;18.730;2023-10-19T03:40:40;50.10;;;24.33;;
42514;SDS011;28144;49.920;18.730;2023-10-19T03:43:06;55.38;;;24.85;;
42514;SDS011;28144;49.920;18.730;2023-10-19T03:45:42;55.63;;;27.27;;
42514;SDS011;28144;49.920;18.730;2023-10-19T03:48:17;58.37;;;30.27;;
42514;SDS011;28144;49.920;18.730;2023-10-19T03:50:52;93.35;;;38.80;;
42514;SDS011;28144;49.920;18.730;2023-10-19T03:53:21;56.73;;;27.67;;
42514;SDS011;28144;49.920;18.730;2023-10-19T03:55:47;52.30;;;26.58;;
42514;SDS011;28144;49.920;18.730;2023-10-19T03:58:16;109.57;;;42.70;;
42514;SDS011;28144;49.920;18.730;2023-10-19T04:00:42;126.75;;;77.85;;
42514;SDS011;28144;49.920;18.730;2023-10-19T04:03:10;474.87;;;258.17;;
42514;SDS011;28144;49.920;18.730;2023-10-19T04:05:36;817.53;;;479.73;;
42514;SDS011;28144;49.920;18.730;2023-10-19T04:08:07;624.80;;;358.27;;
42514;SDS011;28144;49.920;18.730;2023-10-19T04:10:41;454.80;;;226.30;;
42514;SDS011;28144;49.920;18.730;2023-10-19T04:13:25;212.33;;;74.93;;
42514;SDS011;28144;49.920;18.730;2023-10-19T04:15:50;50.73;;;21.63;;
42514;SDS011;28144;49.920;18.730;2023-10-19T04:18:18;49.93;;;22.73;;
42514;SDS011;28144;49.920;18.730;2023-10-19T04:20:44;47.37;;;23.60;;
42514;SDS011;28144;49.920;18.730;2023-10-19T04:23:16;43.77;;;19.37;;
42514;SDS011;28144;49.920;18.730;2023-10-19T04:25:41;51.50;;;23.00;;
42514;SDS011;28144;49.920;18.730;2023-10-19T04:28:07;37.70;;;18.27;;
42514;SDS011;28144;49.920;18.730;2023-10-19T04:30:34;55.40;;;24.13;;
42514;SDS011;28144;49.920;18.730;2023-10-19T04:33:02;42.93;;;21.30;;
42514;SDS011;28144;49.920;18.730;2023-10-19T04:35:28;80.10;;;30.73;;
42514;SDS011;28144;49.920;18.730;2023-10-19T04:37:59;172.80;;;66.77;;
42514;SDS011;28144;49.920;18.730;2023-10-19T04:40:26;67.65;;;31.98;;
42514;SDS011;28144;49.920;18.730;2023-10-19T04:42:52;77.25;;;36.78;;
42514;SDS011;28144;49.920;18.730;2023-10-19T04:45:18;92.53;;;40.13;;
42514;SDS011;28144;49.920;18.730;2023-10-19T04:47:44;53.73;;;26.33;;
42514;SDS011;28144;49.920;18.730;2023-10-19T04:50:11;56.28;;;28.25;;
42514;SDS011;28144;49.920;18.730;2023-10-19T04:52:38;51.90;;;29.70;;
42514;SDS011;28144;49.920;18.730;2023-10-19T04:55:04;53.38;;;26.63;;
42514;SDS011;28144;49.920;18.730;2023-10-19T04:57:30;49.33;;;25.83;;
42514;SDS011;28144;49.920;18.730;2023-10-19T04:59:56;63.80;;;30.53;;
42514;SDS011;28144;49.920;18.730;2023-10-19T05:02:22;55.00;;;29.13;;
42514;SDS011;28144;49.920;18.730;2023-10-19T05:04:48;55.30;;;28.77;;
42514;SDS011;28144;49.920;18.730;2023-10-19T05:07:15;57.50;;;26.90;;
42514;SDS011;28144;49.920;18.730;2023-10-19T05:09:44;54.70;;;28.60;;
42514;SDS011;28144;49.920;18.730;2023-10-19T05:12:11;59.88;;;29.33;;
42514;SDS011;28144;49.920;18.730;2023-10-19T05:14:37;52.75;;;28.08;;
42514;SDS011;28144;49.920;18.730;2023-10-19T05:17:07;53.83;;;27.47;;
42514;SDS011;28144;49.920;18.730;2023-10-19T05:19:38;54.47;;;30.30;;
42514;SDS011;28144;49.920;18.730;2023-10-19T05:22:05;58.03;;;30.97;;
42514;SDS011;28144;49.920;18.730;2023-10-19T05:24:31;67.35;;;33.80;;
42514;SDS011;28144;49.920;18.730;2023-10-19T05:26:57;44.05;;;26.25;;
42514;SDS011;28144;49.920;18.730;2023-10-19T05:29:23;53.77;;;28.03;;
42514;SDS011;28144;49.920;18.730;2023-10-19T05:31:52;49.90;;;26.20;;
42514;SDS011;28144;49.920;18.730;2023-10-19T05:34:19;46.43;;;26.27;;
42514;SDS011;28144;49.920;18.730;2023-10-19T05:36:46;53.97;;;26.10;;
42514;SDS011;28144;49.920;18.730;2023-10-19T05:39:17;45.77;;;22.60;;
42514;SDS011;28144;49.920;18.730;2023-10-19T05:41:43;50.83;;;23.43;;
42514;SDS011;28144;49.920;18.730;2023-10-19T05:44:09;45.00;;;23.10;;
42514;SDS011;28144;49.920;18.730;2023-10-19T05:46:35;42.97;;;23.73;;
42514;SDS011;28144;49.920;18.730;2023-10-19T05:49:01;48.20;;;24.80;;
42514;SDS011;28144;49.920;18.730;2023-10-19T05:51:30;52.67;;;26.67;;
42514;SDS011;28144;49.920;18.730;2023-10-19T05:53:55;53.78;;;26.70;;
42514;SDS011;28144;49.920;18.730;2023-10-19T05:56:27;48.67;;;27.23;;
42514;SDS011;28144;49.920;18.730;2023-10-19T05:58:54;51.10;;;26.30;;
42514;SDS011;28144;49.920;18.730;2023-10-19T06:01:20;53.90;;;28.17;;
42514;SDS011;28144;49.920;18.730;2023-10-19T06:03:47;48.23;;;24.77;;
42514;SDS011;28144;49.920;18.730;2023-10-19T06:06:13;50.42;;;24.80;;
42514;SDS011;28144;49.920;18.730;2023-10-19T06:08:40;47.40;;;24.70;;
42514;SDS011;28144;49.920;18.730;2023-10-19T06:11:06;46.47;;;23.43;;
42514;SDS011;28144;49.920;18.730;2023-10-19T06:13:31;44.27;;;24.27;;
42514;SDS011;28144;49.920;18.730;2023-10-19T06:15:57;55.77;;;26.10;;
42514;SDS011;28144;49.920;18.730;2023-10-19T06:18:23;47.57;;;25.60;;
42514;SDS011;28144;49.920;18.730;2023-10-19T06:20:49;48.80;;;25.50;;
42514;SDS011;28144;49.920;18.730;2023-10-19T06:23:16;52.97;;;27.27;;
42514;SDS011;28144;49.920;18.730;2023-10-19T06:28:09;54.63;;;28.37;;
42514;SDS011;28144;49.920;18.730;2023-10-19T06:30:37;53.83;;;28.93;;
42514;SDS011;28144;49.920;18.730;2023-10-19T06:33:02;56.30;;;30.97;;
42514;SDS011;28144;49.920;18.730;2023-10-19T06:35:29;58.25;;;29.05;;
42514;SDS011;28144;49.920;18.730;2023-10-19T06:37:57;55.57;;;29.80;;
42514;SDS011;28144;49.920;18.730;2023-10-19T06:40:24;55.80;;;31.07;;
42514;SDS011;28144;49.920;18.730;2023-10-19T06:42:52;52.10;;;29.67;;
42514;SDS011;28144;49.920;18.730;2023-10-19T06:45:21;49.30;;;28.70;;
42514;SDS011;28144;49.920;18.730;2023-10-19T06:47:48;53.43;;;29.17;;
42514;SDS011;28144;49.920;18.730;2023-10-19T06:50:16;59.03;;;28.97;;
42514;SDS011;28144;49.920;18.730;2023-10-19T06:52:43;54.80;;;29.13;;
42514;SDS011;28144;49.920;18.730;2023-10-19T06:55:10;45.13;;;27.93;;
42514;SDS011;28144;49.920;18.730;2023-10-19T06:57:40;46.37;;;26.50;;
42514;SDS011;28144;49.920;18.730;2023-10-19T07:00:09;47.53;;;25.13;;
42514;SDS011;28144;49.920;18.730;2023-10-19T07:02:42;43.00;;;26.97;;
42514;SDS011;28144;49.920;18.730;2023-10-19T07:05:15;38.33;;;22.23;;
42514;SDS011;28144;49.920;18.730;2023-10-19T07:07:46;40.43;;;23.33;;
42514;SDS011;28144;49.920;18.730;2023-10-19T07:10:12;42.27;;;24.33;;
42514;SDS011;28144;49.920;18.730;2023-10-19T07:12:39;36.83;;;21.90;;
42514;SDS011;28144;49.920;18.730;2023-10-19T07:15:09;43.40;;;25.33;;
42514;SDS011;28144;49.920;18.730;2023-10-19T07:17:42;43.43;;;22.17;;
42514;SDS011;28144;49.920;18.730;2023-10-19T07:20:08;47.23;;;26.67;;
42514;SDS011;28144;49.920;18.730;2023-10-19T07:22:47;52.33;;;25.77;;
42514;SDS011;28144;49.920;18.730;2023-10-19T07:25:13;50.65;;;26.95;;
42514;SDS011;28144;49.920;18.730;2023-10-19T07:27:39;44.77;;;26.30;;
42514;SDS011;28144;49.920;18.730;2023-10-19T07:30:09;42.57;;;24.90;;
42514;SDS011;28144;49.920;18.730;2023-10-19T07:32:35;39.67;;;17.55;;
42514;SDS011;28144;49.920;18.730;2023-10-19T07:35:02;37.33;;;21.90;;
42514;SDS011;28144;49.920;18.730;2023-10-19T07:37:27;44.77;;;21.10;;
42514;SDS011;28144;49.920;18.730;2023-10-19T07:42:22;36.27;;;21.27;;
42514;SDS011;28144;49.920;18.730;2023-10-19T07:44:51;36.78;;;21.35;;
42514;SDS011;28144;49.920;18.730;2023-10-19T07:49:47;40.80;;;20.07;;
42514;SDS011;28144;49.920;18.730;2023-10-19T07:52:13;37.10;;;20.00;;
42514;SDS011;28144;49.920;18.730;2023-10-19T07:54:40;41.30;;;21.85;;
42514;SDS011;28144;49.920;18.730;2023-10-19T07:57:05;40.60;;;22.00;;
42514;SDS011;28144;49.920;18.730;2023-10-19T07:59:32;41.90;;;21.85;;
42514;SDS011;28144;49.920;18.730;2023-10-19T08:01:58;37.15;;;21.40;;
42514;SDS011;28144;49.920;18.730;2023-10-19T08:04:30;42.23;;;21.40;;
42514;SDS011;28144;49.920;18.730;2023-10-19T08:06:57;36.73;;;22.20;;
42514;SDS011;28144;49.920;18.730;2023-10-19T08:09:25;38.43;;;21.07;;
42514;SDS011;28144;49.920;18.730;2023-10-19T08:11:57;41.10;;;22.03;;
42514;SDS011;28144;49.920;18.730;2023-10-19T08:14:25;39.10;;;20.20;;
42514;SDS011;28144;49.920;18.730;2023-10-19T08:16:51;38.65;;;20.63;;
42514;SDS011;28144;49.920;18.730;2023-10-19T08:19:22;36.73;;;16.63;;
42514;SDS011;28144;49.920;18.730;2023-10-19T08:21:47;44.90;;;22.63;;
42514;SDS011;28144;49.920;18.730;2023-10-19T08:24:13;43.43;;;26.73;;
42514;SDS011;28144;49.920;18.730;2023-10-19T08:26:43;55.57;;;25.93;;
42514;SDS011;28144;49.920;18.730;2023-10-19T08:29:11;45.17;;;25.00;;
42514;SDS011;28144;49.920;18.730;2023-10-19T08:31:40;47.27;;;25.97;;
42514;SDS011;28144;49.920;18.730;2023-10-19T08:34:07;44.00;;;25.90;;
42514;SDS011;28144;49.920;18.730;2023-10-19T08:36:36;43.83;;;24.87;;
42514;SDS011;28144;49.920;18.730;2023-10-19T08:39:05;51.63;;;29.57;;
42514;SDS011;28144;49.920;18.730;2023-10-19T08:41:34;50.27;;;27.27;;
42514;SDS011;28144;49.920;18.730;2023-10-19T08:44:05;44.40;;;25.48;;
42514;SDS011;28144;49.920;18.730;2023-10-19T08:46:44;42.60;;;25.67;;
42514;SDS011;28144;49.920;18.730;2023-10-19T08:49:11;49.07;;;25.67;;
42514;SDS011;28144;49.920;18.730;2023-10-19T08:51:38;46.70;;;26.30;;
42514;SDS011;28144;49.920;18.730;2023-10-19T08:54:05;42.30;;;25.45;;
42514;SDS011;28144;49.920;18.730;2023-10-19T08:56:31;49.22;;;24.42;;
42514;SDS011;28144;49.920;18.730;2023-10-19T08:58:59;42.83;;;24.87;;
42514;SDS011;28144;49.920;18.730;2023-10-19T09:01:27;52.73;;;26.67;;
42514;SDS011;28144;49.920;18.730;2023-10-19T09:03:53;50.60;;;27.50;;
42514;SDS011;28144;49.920;18.730;2023-10-19T09:06:20;47.47;;;28.27;;
42514;SDS011;28144;49.920;18.730;2023-10-19T09:11:13;50.27;;;24.93;;
42514;SDS011;28144;49.920;18.730;2023-10-19T09:16:17;48.87;;;28.13;;
42514;SDS011;28144;49.920;18.730;2023-10-19T09:18:47;57.00;;;33.47;;
42514;SDS011;28144;49.920;18.730;2023-10-19T09:21:16;51.08;;;30.00;;
42514;SDS011;28144;49.920;18.730;2023-10-19T09:23:54;48.50;;;27.80;;
42514;SDS011;28144;49.920;18.730;2023-10-19T09:26:21;50.10;;;30.33;;
42514;SDS011;28144;49.920;18.730;2023-10-19T09:28:48;53.70;;;27.02;;
42514;SDS011;28144;49.920;18.730;2023-10-19T09:31:15;51.37;;;29.60;;
42514;SDS011;28144;49.920;18.730;2023-10-19T09:33:45;57.22;;;31.63;;
42514;SDS011;28144;49.920;18.730;2023-10-19T09:36:12;61.63;;;35.13;;
42514;SDS011;28144;49.920;18.730;2023-10-19T09:41:14;61.00;;;34.53;;
42514;SDS011;28144;49.920;18.730;2023-10-19T09:43:43;68.20;;;38.47;;
42514;SDS011;28144;49.920;18.730;2023-10-19T09:46:10;58.93;;;30.80;;
42514;SDS011;28144;49.920;18.730;2023-10-19T09:48:42;55.83;;;32.63;;
42514;SDS011;28144;49.920;18.730;2023-10-19T09:51:09;59.90;;;35.07;;
42514;SDS011;28144;49.920;18.730;2023-10-19T09:53:36;66.75;;;33.28;;
42514;SDS011;28144;49.920;18.730;2023-10-19T09:56:03;62.23;;;32.93;;
42514;SDS011;28144;49.920;18.730;2023-10-19T09:58:36;64.17;;;36.27;;
42514;SDS011;28144;49.920;18.730;2023-10-19T10:01:08;70.83;;;38.30;;
42514;SDS011;28144;49.920;18.730;2023-10-19T10:06:13;49.27;;;30.60;;
42514;SDS011;28144;49.920;18.730;2023-10-19T10:08:45;74.32;;;38.78;;
42514;SDS011;28144;49.920;18.730;2023-10-19T10:11:23;73.20;;;35.70;;
42514;SDS011;28144;49.920;18.730;2023-10-19T10:13:52;67.97;;;36.53;;
42514;SDS011;28144;49.920;18.730;2023-10-19T10:16:19;55.28;;;30.00;;
42514;SDS011;28144;49.920;18.730;2023-10-19T10:18:48;62.47;;;34.73;;
42514;SDS011;28144;49.920;18.730;2023-10-19T10:21:16;80.03;;;42.30;;
42514;SDS011;28144;49.920;18.730;2023-10-19T10:23:49;57.03;;;31.50;;
42514;SDS011;28144;49.920;18.730;2023-10-19T10:26:20;49.10;;;28.73;;
42514;SDS011;28144;49.920;18.730;2023-10-19T10:29:32;55.27;;;30.03;;
42514;SDS011;28144;49.920;18.730;2023-10-19T10:31:45;51.13;;;29.73;;
42514;SDS011;28144;49.920;18.730;2023-10-19T10:37:06;39.67;;;22.80;;
42514;SDS011;28144;49.920;18.730;2023-10-19T10:39:34;40.73;;;25.23;;
42514;SDS011;28144;49.920;18.730;2023-10-19T10:42:04;46.37;;;26.30;;
42514;SDS011;28144;49.920;18.730;2023-10-19T10:44:46;44.27;;;27.70;;
42514;SDS011;28144;49.920;18.730;2023-10-19T10:47:16;37.93;;;24.03;;
42514;SDS011;28144;49.920;18.730;2023-10-19T10:52:29;48.03;;;26.83;;
42514;SDS011;28144;49.920;18.730;2023-10-19T10:54:56;42.70;;;24.87;;
42514;SDS011;28144;49.920;18.730;2023-10-19T11:00:02;46.40;;;26.77;;
42514;SDS011;28144;49.920;18.730;2023-10-19T11:02:30;50.03;;;29.63;;
42514;SDS011;28144;49.920;18.730;2023-10-19T11:04:56;42.57;;;26.60;;
42514;SDS011;28144;49.920;18.730;2023-10-19T11:07:21;50.73;;;30.67;;
42514;SDS011;28144;49.920;18.730;2023-10-19T11:09:48;43.65;;;26.75;;
42514;SDS011;28144;49.920;18.730;2023-10-19T11:12:14;48.37;;;26.63;;
42514;SDS011;28144;49.920;18.730;2023-10-19T11:14:54;48.47;;;27.03;;
42514;SDS011;28144;49.920;18.730;2023-10-19T11:17:21;42.10;;;26.58;;
42514;SDS011;28144;49.920;18.730;2023-10-19T11:19:54;43.57;;;26.97;;
42514;SDS011;28144;49.920;18.730;2023-10-19T11:22:22;56.73;;;32.57;;
42514;SDS011;28144;49.920;18.730;2023-10-19T11:24:55;56.13;;;31.40;;
42514;SDS011;28144;49.920;18.730;2023-10-19T11:27:25;50.40;;;29.53;;
42514;SDS011;28144;49.920;18.730;2023-10-19T11:29:57;55.27;;;32.80;;
42514;SDS011;28144;49.920;18.730;2023-10-19T11:32:35;58.97;;;32.53;;
42514;SDS011;28144;49.920;18.730;2023-10-19T11:35:03;49.73;;;29.83;;
42514;SDS011;28144;49.920;18.730;2023-10-19T11:37:29;91.13;;;53.85;;
42514;SDS011;28144;49.920;18.730;2023-10-19T11:39:55;74.55;;;40.63;;
42514;SDS011;28144;49.920;18.730;2023-10-19T11:42:21;74.67;;;47.00;;
42514;SDS011;28144;49.920;18.730;2023-10-19T11:44:47;48.20;;;29.47;;
42514;SDS011;28144;49.920;18.730;2023-10-19T11:47:12;77.97;;;43.50;;
42514;SDS011;28144;49.920;18.730;2023-10-19T11:49:41;50.47;;;31.73;;
42514;SDS011;28144;49.920;18.730;2023-10-19T11:52:07;63.63;;;37.37;;
42514;SDS011;28144;49.920;18.730;2023-10-19T11:54:33;61.78;;;38.88;;
42514;SDS011;28144;49.920;18.730;2023-10-19T11:56:59;49.15;;;28.77;;
42514;SDS011;28144;49.920;18.730;2023-10-19T11:59:25;63.87;;;39.00;;
42514;SDS011;28144;49.920;18.730;2023-10-19T12:01:51;58.03;;;37.25;;
42514;SDS011;28144;49.920;18.730;2023-10-19T12:04:17;55.58;;;30.85;;
42514;SDS011;28144;49.920;18.730;2023-10-19T12:06:44;61.05;;;32.00;;
42514;SDS011;28144;49.920;18.730;2023-10-19T12:09:11;55.60;;;31.23;;
42514;SDS011;28144;49.920;18.730;2023-10-19T12:11:40;92.73;;;48.67;;
42514;SDS011;28144;49.920;18.730;2023-10-19T12:14:06;61.03;;;37.13;;
42514;SDS011;28144;49.920;18.730;2023-10-19T12:16:37;66.53;;;38.03;;
42514;SDS011;28144;49.920;18.730;2023-10-19T12:19:05;51.77;;;29.90;;
42514;SDS011;28144;49.920;18.730;2023-10-19T12:21:30;112.53;;;55.03;;
42514;SDS011;28144;49.920;18.730;2023-10-19T12:23:59;54.30;;;34.60;;
42514;SDS011;28144;49.920;18.730;2023-10-19T12:26:26;60.87;;;38.30;;
42514;SDS011;28144;49.920;18.730;2023-10-19T12:28:55;59.57;;;35.47;;
42514;SDS011;28144;49.920;18.730;2023-10-19T12:31:20;54.63;;;35.37;;
42514;SDS011;28144;49.920;18.730;2023-10-19T12:33:49;59.53;;;32.93;;
42514;SDS011;28144;49.920;18.730;2023-10-19T12:36:18;60.10;;;35.93;;
42514;SDS011;28144;49.920;18.730;2023-10-19T12:38:53;67.40;;;37.67;;
42514;SDS011;28144;49.920;18.730;2023-10-19T12:41:22;65.82;;;40.83;;
42514;SDS011;28144;49.920;18.730;2023-10-19T12:43:50;80.47;;;45.20;;
42514;SDS011;28144;49.920;18.730;2023-10-19T12:46:23;81.07;;;46.43;;
42514;SDS011;28144;49.920;18.730;2023-10-19T12:48:58;68.80;;;42.43;;
42514;SDS011;28144;49.920;18.730;2023-10-19T12:51:24;55.67;;;35.27;;
42514;SDS011;28144;49.920;18.730;2023-10-19T12:53:52;63.45;;;38.15;;
42514;SDS011;28144;49.920;18.730;2023-10-19T12:56:21;62.65;;;35.38;;
42514;SDS011;28144;49.920;18.730;2023-10-19T12:58:50;76.87;;;42.77;;
42514;SDS011;28144;49.920;18.730;2023-10-19T13:01:16;59.07;;;37.40;;
42514;SDS011;28144;49.920;18.730;2023-10-19T13:06:11;63.63;;;40.03;;
42514;SDS011;28144;49.920;18.730;2023-10-19T13:08:38;53.10;;;34.60;;
42514;SDS011;28144;49.920;18.730;2023-10-19T13:11:06;127.60;;;70.63;;
42514;SDS011;28144;49.920;18.730;2023-10-19T13:16:01;61.90;;;36.63;;
42514;SDS011;28144;49.920;18.730;2023-10-19T13:18:31;72.20;;;42.03;;
42514;SDS011;28144;49.920;18.730;2023-10-19T13:20:59;72.63;;;43.33;;
42514;SDS011;28144;49.920;18.730;2023-10-19T13:23:35;59.10;;;35.03;;
42514;SDS011;28144;49.920;18.730;2023-10-19T13:26:01;68.15;;;39.45;;
42514;SDS011;28144;49.920;18.730;2023-10-19T13:28:33;76.93;;;46.87;;
42514;SDS011;28144;49.920;18.730;2023-10-19T13:31:00;119.93;;;69.83;;
42514;SDS011;28144;49.920;18.730;2023-10-19T13:35:53;76.68;;;43.58;;
42514;SDS011;28144;49.920;18.730;2023-10-19T13:38:19;107.40;;;61.42;;
42514;SDS011;28144;49.920;18.730;2023-10-19T13:40:45;66.07;;;40.93;;
42514;SDS011;28144;49.920;18.730;2023-10-19T13:43:11;70.85;;;41.30;;
42514;SDS011;28144;49.920;18.730;2023-10-19T13:45:42;72.20;;;44.23;;
42514;SDS011;28144;49.920;18.730;2023-10-19T13:48:10;70.40;;;41.57;;
42514;SDS011;28144;49.920;18.730;2023-10-19T13:50:40;75.07;;;46.70;;
42514;SDS011;28144;49.920;18.730;2023-10-19T13:53:08;78.40;;;49.93;;
42514;SDS011;28144;49.920;18.730;2023-10-19T13:55:35;84.95;;;53.00;;
42514;SDS011;28144;49.920;18.730;2023-10-19T13:58:04;106.53;;;65.33;;
42514;SDS011;28144;49.920;18.730;2023-10-19T14:00:31;96.80;;;54.30;;
42514;SDS011;28144;49.920;18.730;2023-10-19T14:03:00;105.10;;;63.87;;
42514;SDS011;28144;49.920;18.730;2023-10-19T14:05:29;77.17;;;40.07;;
42514;SDS011;28144;49.920;18.730;2023-10-19T14:07:56;80.13;;;48.47;;
42514;SDS011;28144;49.920;18.730;2023-10-19T14:10:21;85.20;;;49.93;;
42514;SDS011;28144;49.920;18.730;2023-10-19T14:12:47;69.23;;;41.57;;
42514;SDS011;28144;49.920;18.730;2023-10-19T14:15:20;72.37;;;47.90;;
42514;SDS011;28144;49.920;18.730;2023-10-19T14:17:46;78.17;;;48.97;;
42514;SDS011;28144;49.920;18.730;2023-10-19T14:20:13;71.33;;;44.50;;
42514;SDS011;28144;49.920;18.730;2023-10-19T14:22:44;78.03;;;50.47;;
42514;SDS011;28144;49.920;18.730;2023-10-19T14:25:11;74.40;;;50.10;;
42514;SDS011;28144;49.920;18.730;2023-10-19T14:27:41;82.13;;;56.63;;
42514;SDS011;28144;49.920;18.730;2023-10-19T14:30:12;96.97;;;64.77;;
42514;SDS011;28144;49.920;18.730;2023-10-19T14:32:39;75.87;;;50.80;;
42514;SDS011;28144;49.920;18.730;2023-10-19T14:35:05;83.45;;;49.50;;
42514;SDS011;28144;49.920;18.730;2023-10-19T14:37:34;94.47;;;57.97;;
42514;SDS011;28144;49.920;18.730;2023-10-19T14:40:01;95.18;;;56.10;;
42514;SDS011;28144;49.920;18.730;2023-10-19T14:42:27;196.20;;;94.18;;
42514;SDS011;28144;49.920;18.730;2023-10-19T14:44:56;115.73;;;69.37;;
42514;SDS011;28144;49.920;18.730;2023-10-19T14:47:22;104.33;;;61.00;;
42514;SDS011;28144;49.920;18.730;2023-10-19T14:49:47;114.43;;;68.87;;
42514;SDS011;28144;49.920;18.730;2023-10-19T14:52:13;94.40;;;58.20;;
42514;SDS011;28144;49.920;18.730;2023-10-19T14:54:39;103.83;;;63.50;;
42514;SDS011;28144;49.920;18.730;2023-10-19T14:57:05;98.70;;;58.30;;
42514;SDS011;28144;49.920;18.730;2023-10-19T14:59:30;105.53;;;64.17;;
42514;SDS011;28144;49.920;18.730;2023-10-19T15:01:59;107.50;;;64.97;;